Archival Weather

Chicago O'Hare International

Chicago, Illinois (KORD)

Report from: Saturday, May 20, 2023 9:51 AM CDT
Current time: Sunday, February 25, 2024 2:50 PM CST

Current weather – Weather history – Daily summaries
Weather forecast

Temperature15.0°C (59.0°F)
Dew point6.1°C (43.0°F)
Winds 12 kts (6.2 m/s, 13.8 mph) North (350°)
Wind gusts 21 kts (10.8 m/s, 24.2 mph)
Visibility10 mi. (16.1 km)
Clouds Scattered clouds 4,000 ft. (1,219 m)
Altimeter30.16 in.Hg (1021 mB)
Relative humidity55 %
Density altitude-131 ft. (-40 m)
Sea-level pressure102.1 kPa (1021 mB, 30.16 in.Hg)
Remarks Automated weather observing station with precipitation discriminator
Pressure rising more slowly
Flight conditions Visual Meteorological Conditions
Raw dataKORD 201451Z 35012G21KT 10SM SCT040 15/06 A3016 RMK AO2 SLP212 T01500061 51004
An error has occurred. This application may no longer respond until reloaded. Reload 🗙